Latest Coastal Weather Observations for Centre Island

IDD60701

Issued at 8:01 pm CST Wednesday 5 August 2015 (issued every 10 minutes, with the page automatically refreshed every 10 minutes)

About coastal observations | Map of coastal stations | Coastal observations for NT | Marine services | Other Formats
Station Details ID: 014703 Name: CENTRE ISLAND Lat: -15.74 Lon: 136.82 Height: 12.2 m
Data from the previous 72 hours. | See also: Recent months at Centre Island
Date/Time
CST
Temp

°C
Wind Pressure Rain
since 9am
mm
Weather Cloud Vis
km
Sea
Height
m
Swell
Dir
 
Speed
knots
Gust
knots
hPa Trend Height
m
Period
s
Dir
05/08:00pm 21.6 ESE 12 14 1016.0 - 0.0 - - - - - - -
05/07:30pm 21.8 E 13 15 1015.7 - 0.0 - - - - - - -
05/07:00pm 22.1 E 12 14 1015.3 - 0.0 - - - - - - -
05/06:30pm 22.4 E 12 14 1014.8 - 0.0 - - - - - - -
05/06:00pm 23.1 E 11 13 1014.7 - 0.0 - - - - - - -
05/05:30pm 23.9 E 10 12 1014.6 - 0.0 - - - - - - -
05/05:00pm 24.7 E 11 13 1014.6 - 0.0 - - - - - - -
05/04:30pm 25.7 E 12 15 1014.6 - 0.0 - - - - - - -
05/04:00pm 25.8 E 10 13 1014.7 - 0.0 - - - - - - -
05/03:30pm 25.8 E 11 14 1014.6 - 0.0 - - - - - - -
05/03:00pm 26.1 E 11 14 1014.8 - 0.0 - - - - - - -
05/02:30pm 26.0 ESE 13 15 1015.0 - 0.0 - - - - - - -
05/02:00pm 25.9 ESE 13 15 1015.6 - 0.0 - - - - - - -
05/01:30pm 25.2 ESE 16 18 1016.0 - 0.0 - - - - - - -
05/01:00pm 25.1 ESE 17 20 1016.5 - 0.0 - - - - - - -
05/12:30pm 24.3 ESE 17 20 1016.9 - 0.0 - - - - - - -
05/12:00pm 24.1 ESE 18 22 1017.3 - 0.0 - - - - - - -
05/11:30am 23.0 ESE 20 23 1017.5 - 0.0 - - - - - - -
05/11:00am 22.7 ESE 21 25 1017.9 - 0.0 - - - - - - -
05/10:30am 22.2 ESE 24 28 1018.3 - 0.0 - - - - - - -
05/10:00am 21.6 SE 23 27 1018.6 - 0.0 - - - - - - -
05/09:43am 21.3 SE 16 26 1018.7 - 0.0 - - - - - - -
05/09:30am 20.0 SE 17 20 1018.8 - 0.0 - - - - - - -
05/09:00am 19.6 SE 21 25 1018.9 - 0.0 - - - - - - -
05/08:30am 19.0 SE 19 24 1018.8 - 0.0 - - - - - - -
05/08:00am 18.4 SSE 18 23 1018.4 - 0.0 - - - - - - -
05/07:30am 18.0 SSE 19 23 1018.0 - 0.0 - - - - - - -
05/07:00am 18.0 SSE 19 23 1017.9 - 0.0 - - - - - - -
05/06:30am 18.4 SSE 21 24 1017.5 - 0.0 - - - - - - -
05/06:00am 18.6 SSE 19 22 1017.2 - 0.0 - - - - - - -
05/05:30am 18.7 SSE 18 21 1016.9 - 0.0 - - - - - - -
05/05:00am 19.0 SSE 19 21 1016.8 - 0.0 - - - - - - -
05/04:30am 19.0 SSE 17 20 1016.6 - 0.0 - - - - - - -
05/04:00am 19.7 SSE 19 22 1016.6 - 0.0 - - - - - - -
05/03:30am 19.7 SSE 18 21 1016.7 - 0.0 - - - - - - -
05/03:00am 19.9 SSE 20 23 1016.9 - 0.0 - - - - - - -
05/02:30am 20.2 SSE 19 23 1016.9 - 0.0 - - - - - - -
05/02:00am 20.6 SSE 20 24 1016.9 - 0.0 - - - - - - -
05/01:30am 20.9 SSE 19 24 1017.0 - 0.0 - - - - - - -
05/01:00am 21.2 S 17 20 1017.1 - 0.0 - - - - - - -
05/12:30am 21.4 S 16 18 1017.2 - 0.0 - - - - - - -
05/12:00am 21.7 SSE 17 19 1017.1 - 0.0 - - - - - - -
 
Date/Time
CST
Temp

°C
Wind Pressure Rain
since 9am
mm
Weather Cloud Vis
km
Sea
Height
m
Swell
Dir
 
Speed
knots
Gust
knots
hPa Trend Height
m
Period
s
Dir
04/11:30pm 22.1 SSE 16 18 1017.0 - 0.0 - - - - - - -
04/11:00pm 22.3 S 13 16 1017.1 - 0.0 - - - - - - -
04/10:30pm 22.0 SSE 11 13 1017.1 - 0.0 - - - - - - -
04/10:00pm 22.4 SE 11 14 1017.1 - 0.0 - - - - - - -
04/09:30pm 22.0 ESE 10 12 1016.9 - 0.0 - - - - - - -
04/09:00pm 21.7 ESE 8 10 1016.8 - 0.0 - - - - - - -
04/08:30pm 22.0 ESE 9 11 1016.7 - 0.0 - - - - - - -
04/08:00pm 22.0 E 8 10 1016.5 - 0.0 - - - - - - -
04/07:30pm 22.0 E 7 9 1016.1 - 0.0 - - - - - - -
04/07:00pm 22.3 E 9 11 1015.8 - 0.0 - - - - - - -
04/06:30pm 22.5 E 10 13 1015.6 - 0.0 - - - - - - -
04/06:00pm 22.9 E 11 13 1015.4 - 0.0 - - - - - - -
04/05:30pm 23.8 E 12 14 1015.3 - 0.0 - - - - - - -
04/05:00pm 24.6 E 11 13 1015.4 - 0.0 - - - - - - -
04/04:30pm 25.5 E 10 13 1015.3 - 0.0 - - - - - - -
04/04:00pm 25.6 E 9 11 1015.3 - 0.0 - - - - - - -
04/03:30pm 26.1 ENE 10 12 1015.4 - 0.0 - - - - - - -
04/03:00pm 26.2 ENE 10 13 1015.7 - 0.0 - - - - - - -
04/02:30pm 26.6 E 9 12 1016.1 - 0.0 - - - - - - -
04/02:00pm 26.9 E 8 9 1016.6 - 0.0 - - - - - - -
04/01:30pm 26.4 E 8 10 1017.2 - 0.0 - - - - - - -
04/01:00pm 26.1 ESE 9 11 1017.8 - 0.0 - - - - - - -
04/12:30pm 26.4 SE 11 14 1018.4 - 0.0 - - - - - - -
04/12:00pm 25.9 SE 12 16 1018.8 - 0.0 - - - - - - -
04/11:30am 25.3 SE 14 17 1019.3 - 0.0 - - - - - - -
04/11:00am 24.6 SSE 14 17 1019.6 - 0.0 - - - - - - -
04/10:30am 23.9 SSE 17 20 1019.8 - 0.0 - - - - - - -
04/10:00am 23.1 SE 17 20 1020.0 - 0.0 - - - - - - -
04/09:30am 21.9 SSE 16 19 1020.1 - 0.0 - - - - - - -
04/09:00am 21.1 SSE 19 22 1019.8 - 0.0 - - - - - - -
04/08:30am 20.7 SSE 19 22 1019.5 - 0.0 - - - - - - -
04/08:00am 20.5 SSE 16 21 1019.2 - 0.0 - - - - - - -
04/07:30am 20.2 SSE 12 16 1018.8 - 0.0 - - - - - - -
04/07:00am 20.1 S 13 16 1018.3 - 0.0 - - - - - - -
04/06:30am 20.3 S 16 20 1017.9 - 0.0 - - - - - - -
04/06:00am 20.7 S 16 19 1017.4 - 0.0 - - - - - - -
04/05:30am 20.9 S 14 18 1017.1 - 0.0 - - - - - - -
04/05:00am 21.2 S 14 17 1017.0 - 0.0 - - - - - - -
04/04:30am 21.6 S 15 21 1016.8 - 0.0 - - - - - - -
04/04:00am 21.9 S 15 19 1016.7 - 0.0 - - - - - - -
04/03:30am 22.1 S 15 17 1016.7 - 0.0 - - - - - - -
04/03:00am 22.5 S 19 23 1016.5 - 0.0 - - - - - - -
04/02:30am 22.5 S 16 20 1016.4 - 0.0 - - - - - - -
04/02:00am 21.9 SSW 12 14 1016.5 - 0.0 - - - - - - -
04/01:30am 21.9 SSW 10 12 1016.7 - 0.0 - - - - - - -
04/01:00am 21.8 S 11 13 1017.0 - 0.0 - - - - - - -
04/12:30am 22.5 S 11 13 1017.2 - 0.0 - - - - - - -
04/12:00am 22.3 S 13 15 1017.3 - 0.0 - - - - - - -
 
Date/Time
CST
Temp

°C
Wind Pressure Rain
since 9am
mm
Weather Cloud Vis
km
Sea
Height
m
Swell
Dir
 
Speed
knots
Gust
knots
hPa Trend Height
m
Period
s
Dir
03/11:30pm 22.4 SSE 10 12 1017.1 - 0.0 - - - - - - -
03/11:00pm 22.5 S 10 12 1017.3 - 0.0 - - - - - - -
03/10:30pm 22.9 SSE 9 11 1017.5 - 0.0 - - - - - - -
03/10:00pm 22.7 SSE 6 7 1017.4 - 0.0 - - - - - - -
03/09:30pm 22.5 SE 6 7 1017.1 - 0.0 - - - - - - -
03/09:00pm 22.3 SE 4 5 1017.0 - 0.0 - - - - - - -
03/08:30pm 22.2 E 1 4 1016.9 - 0.0 - - - - - - -
03/08:00pm 22.9 ENE 7 8 1016.6 - 0.0 - - - - - - -
03/07:30pm 23.0 NNE 6 9 1016.4 - 0.0 - - - - - - -
03/07:00pm 23.3 NE 8 10 1016.0 - 0.0 - - - - - - -
03/06:30pm 23.8 NE 10 12 1015.9 - 0.0 - - - - - - -
03/06:00pm 24.4 NNE 9 12 1015.7 - 0.0 - - - - - - -
03/05:30pm 25.8 NE 8 11 1015.6 - 0.0 - - - - - - -
03/05:00pm 26.5 ENE 10 14 1015.4 - 0.0 - - - - - - -
03/04:30pm 27.2 ENE 14 18 1015.3 - 0.0 - - - - - - -
03/04:00pm 27.8 E 13 16 1015.3 - 0.0 - - - - - - -
03/03:30pm 28.4 E 14 18 1015.3 - 0.0 - - - - - - -
03/03:00pm 28.6 ENE 13 16 1015.5 - 0.0 - - - - - - -
03/02:30pm 27.9 NE 11 16 1015.8 - 0.0 - - - - - - -
03/02:00pm 29.5 NE 11 16 1016.0 - 0.0 - - - - - - -
03/01:30pm 29.0 NE 9 14 1016.3 - 0.0 - - - - - - -
03/01:00pm 28.8 SSE 4 5 1016.7 - 0.0 - - - - - - -
03/12:30pm 28.3 S 4 5 1017.2 - 0.0 - - - - - - -
03/12:00pm 28.4 SSW 5 6 1017.6 - 0.0 - - - - - - -
03/11:30am 27.1 S 5 6 1017.9 - 0.0 - - - - - - -
03/11:00am 26.7 S 6 8 1018.1 - 0.0 - - - - - - -
03/10:30am 26.0 S 7 8 1018.3 - 0.0 - - - - - - -
03/10:00am 25.2 S 9 11 1018.5 - 0.0 - - - - - - -
03/09:30am 24.4 S 9 11 1018.4 - 0.0 - - - - - - -
03/09:00am 23.0 S 11 13 1018.3 - 0.2 - - - - - - -
03/08:30am 21.8 S 11 13 1018.0 - 0.2 - - - - - - -
03/08:00am 20.6 S 14 18 1017.8 - 0.2 - - - - - - -
03/07:30am 20.3 S 13 17 1017.2 - 0.2 - - - - - - -
03/07:00am 20.2 S 8 11 1016.7 - 0.2 - - - - - - -
03/06:30am 20.1 S 7 10 1016.3 - 0.2 - - - - - - -
03/06:00am 20.2 S 6 8 1016.0 - 0.2 - - - - - - -
03/05:30am 20.5 S 5 8 1015.9 - 0.2 - - - - - - -
03/05:00am 20.6 S 4 6 1016.0 - 0.2 - - - - - - -
03/04:30am 20.6 SSE 5 6 1016.0 - 0.2 - - - - - - -
03/04:00am 20.7 SSE 7 9 1016.1 - 0.2 - - - - - - -
03/03:30am 21.0 SSE 7 9 1016.2 - 0.2 - - - - - - -
03/03:00am 21.7 SE 8 9 1016.2 - 0.2 - - - - - - -
03/02:30am 21.7 ESE 5 6 1016.1 - 0.2 - - - - - - -
03/02:00am 21.9 ESE 6 8 1016.4 - 0.2 - - - - - - -
03/01:30am 22.0 ESE 7 8 1016.7 - 0.2 - - - - - - -
03/01:00am 22.1 ESE 8 9 1017.0 - 0.2 - - - - - - -
03/12:30am 22.1 ESE 8 9 1017.2 - 0.2 - - - - - - -
03/12:00am 22.1 ESE 8 9 1017.3 - 0.2 - - - - - - -
 
Date/Time
CST
Temp

°C
Wind Pressure Rain
since 9am
mm
Weather Cloud Vis
km
Sea
Height
m
Swell
Dir
 
Speed
knots
Gust
knots
hPa Trend Height
m
Period
s
Dir
02/11:30pm 22.1 ESE 7 8 1017.3 - 0.2 - - - - - - -
02/11:00pm 22.3 ESE 7 8 1017.3 - 0.2 - - - - - - -
02/10:30pm 22.3 E 8 9 1017.2 - 0.2 - - - - - - -
02/10:00pm 22.3 E 7 8 1017.1 - 0.2 - - - - - - -
02/09:30pm 22.4 ENE 8 9 1017.0 - 0.2 - - - - - - -
02/09:00pm 22.6 ENE 9 11 1016.9 - 0.2 - - - - - - -
02/08:30pm 22.8 ENE 9 11 1016.7 - 0.2 - - - - - - -

Other Formats:

Comma delimited format used in spreadsheet applications
http://www.bom.gov.au/fwo/IDD60701/IDD60701.94248.axf

JavaScript Object Notation format (JSON) in row-major order
http://www.bom.gov.au/fwo/IDD60701/IDD60701.94248.json